Estación Meteorológica Peña el Pijo (Robertgarden) [ 02/19/19 21:27:41 CET ]

Fecha Hora Presion(HPa) Temp (°C) Humedad % Rocio (°C) Viento ( m/s) Direccion Lluvia 1Hora(mm) Lluvia 24H(mm) LLuvia Total(mm)
2019-Feb-16 01:01:43 1015.000 0.2 83 -2.3         183.37
2019-Feb-16 02:08:07 1015.100 1.0 84 -1.5         183.37
2019-Feb-16 03:01:43 1014.800 1.6 84 -0.9         183.37
2019-Feb-16 04:01:36 1014.200 1.9 86 -0.2         183.37
2019-Feb-16 05:01:54 1013.800 0.9 86 -1.2         183.37
2019-Feb-16 06:01:29 1013.700 -0.1 86 -2.1         183.37
2019-Feb-16 07:01:51 1013.800 -0.7 86 -2.7         183.37
2019-Feb-16 08:01:43 1014.300 -1.4 87 -3.3         183.37
2019-Feb-16 09:01:51 1014.800 -1.1 88 -2.8         183.37
2019-Feb-16 10:01:50 1015.200 1.6 88 -0.2         183.37
2019-Feb-16 11:01:42 1015.000 5.0 87 3.0         183.37
2019-Feb-16 12:01:38 1014.700 10.4 68 4.8         183.37
2019-Feb-16 13:01:39 1014.600 13.2 37 -1.3 2.6 E     183.37
2019-Feb-16 14:01:52 1013.900 14.5 35 -0.9         183.37
2019-Feb-16 15:02:07 1013.600 14.9 33 -1.3 3.4 WNW     183.37
2019-Feb-16 16:01:29 1012.900 14.6 35 -0.8         183.37
2019-Feb-16 17:01:57 1012.800 13.3 39 -0.4         183.37
2019-Feb-16 18:01:47 1012.800 11.2 49 0.9         183.37
2019-Feb-16 19:01:39 1013.300 8.6 53 -0.5 4.7 NNW     183.37
2019-Feb-16 20:01:32 1013.800 7.3 43 -4.5         183.37
2019-Feb-16 21:01:43 1014.000 4.5 50 -5.1         183.37
2019-Feb-16 22:01:34 1014.400 2.9 54 -5.5         183.37
2019-Feb-16 23:01:51 1014.600 0.7 59 -6.4         183.37

Temperatura Máxima:14°    Temperatura Mínima:-1°
Presión Máxima:1015.200 Hpa    Presión Mínima:1012.800 Hpa


Volver